Avondale, Louisiana
Current Conditions -  °F | °C
As of 5:53 PM on Friday 24 Oct 2014 (Local Time) from KMSY Reporting Station
Few Clouds Few Clouds  
Wind Chill: 22°   Ceiling: Unl
Heat Index: 22°   Visibility: 10mi
Dew Point:   Wind: 8mph
Humidity: 41%   Direction: 320°NW
Pressure: 30.06"   Gusts: NA
Location:  29.9137°N, 90.2078°W
Report Text: KMSY 242253Z 32007KT 10SM FEW250 22/08 A3006 RMK AO2 SLP180 T02220083
Loading
Personal Weather Stations






























Interactive Weather Map
Tropical Storm Tracking
New forecast layout! Learn more

10-Day Weather Forecast

Advertisements
Track Severe Weather on mobile